Meteo Giornale » Osservazioni meteo Italia » Capo Mele

ore: 02:55 - Osservazioni Meteo Capo Mele
Lat. 43° 57' N Lon. 8° 10' E Alt. 220 metri s.l.m.

sereno Europe/Rome

13 °C

Sereno

Temp. 24 Ore

12 °C

17 °C

Nord

0 Km/h

Dew point 9 °C

Umidità 76 %

Visibilità  10 Km

Il sole sorge alle ore 07:26

Il sole tramonta alle ore 16:59

Data e Ora Cielo e Fenomeni T °C DP °C Um. % Pres. hPa Vis. km Vento km/h
Oggi h: 02:55 sereno Sereno 13 9 76 1015 10 N 0
Oggi h: 01:55 sereno Sereno 13 11 87 1016 10 N 0
Oggi h: 00:55 sereno Sereno 13 11 87 1016 10 N 0
Ieri h: 23:55 sereno Sereno 12 8 76 1017 10 N 0
Ieri h: 22:55 sereno Sereno 13 9 76 1017 10 N 0
Ieri h: 21:55 sereno Sereno 12 7 71 1017 10 N 0
Ieri h: 20:55 sereno Sereno 13 7 66 1017 10 N 0
Ieri h: 19:55 sereno Sereno 13 6 62 1017 10 O/SO 11.1
Ieri h: 18:55 sereno Sereno 13 9 76 1017 10 O/SO 14.8
Ieri h: 17:55 sereno Sereno 13 10 81 1017 10 O/SO 16.7
Ieri h: 16:55 sereno Sereno 15 11 76 1017 10 SO 16.7
Ieri h: 15:55 sereno Sereno 16 11 72 1016 10 SO 16.7
Ieri h: 14:55 sereno Sereno 16 11 72 1016 10 S/SO 22.2
Ieri h: 13:55 sereno Sereno 16 11 72 1017 10 S/SO 22.2
Ieri h: 12:55 sereno Sereno 17 10 63 1017 10 S/SO 16.7
Ieri h: 11:55 sereno Sereno 16 9 63 1017 10 S 13
Ieri h: 10:55 sereno Sereno 16 8 58 1017 10 SO 7.4
Ieri h: 09:55 sereno Sereno 15 6 54 1017 10 N 5.5
Ieri h: 06:55 sereno Sereno 12 1 46 1016 10 N 9.3
Ieri h: 05:55 sereno Sereno 12 2 50 1017 10 N/NO 14.8
Ieri h: 04:55 sereno Sereno 12 1 46 1016 10 N/NO 11.1
Ieri h: 03:55 sereno Sereno 12 2 50 1017 10 N 22.2